createdAt,value
2019-04-26T00:00:46.809Z,100875.61
2019-04-26T00:03:16.247Z,100874.39
2019-04-26T00:05:43.053Z,100879.42
2019-04-26T00:08:11.767Z,100880.31
2019-04-26T00:10:43.462Z,100879.59
2019-04-26T00:13:18.552Z,100880.29
2019-04-26T00:15:53.310Z,100870.73
2019-04-26T00:18:20.948Z,100869.02
2019-04-26T00:20:47.835Z,100865.77
2019-04-26T00:23:14.628Z,100871.67
2019-04-26T00:25:41.846Z,100867.19
2019-04-26T00:28:09.100Z,100878.25
2019-04-26T00:30:36.744Z,100874.83
2019-04-26T00:33:03.647Z,100874.45
2019-04-26T00:35:30.474Z,100865.81
2019-04-26T00:37:57.396Z,100873.02
2019-04-26T00:40:24.490Z,100870.68
2019-04-26T00:42:51.691Z,100867.66
2019-04-26T00:45:19.083Z,100864.45
2019-04-26T00:47:47.614Z,100867.56
2019-04-26T00:50:15.366Z,100860.97
2019-04-26T00:52:42.368Z,100865.28
2019-04-26T00:55:09.354Z,100857.77
2019-04-26T00:57:36.640Z,100855.33
2019-04-26T01:00:04.822Z,100855.33
2019-04-26T01:02:42.603Z,100851.49
2019-04-26T01:05:09.766Z,100850.50
2019-04-26T01:07:38.032Z,100845.59
2019-04-26T01:10:05.609Z,100845.06
2019-04-26T01:12:32.682Z,100842.69
2019-04-26T01:14:59.593Z,100839.69
2019-04-26T01:17:26.813Z,100832.78
2019-04-26T01:19:54.234Z,100831.18
2019-04-26T01:22:23.397Z,100832.48
2019-04-26T01:24:51.926Z,100834.84
2019-04-26T01:27:21.329Z,100836.60
2019-04-26T01:29:50.222Z,100835.97
2019-04-26T01:32:19.228Z,100829.20
2019-04-26T01:34:48.789Z,100831.23
2019-04-26T01:37:15.706Z,100831.25
2019-04-26T01:39:45.590Z,100831.38
2019-04-26T01:42:14.555Z,100834.46
2019-04-26T01:44:59.874Z,100825.70
2019-04-26T01:47:28.402Z,100819.55
2019-04-26T01:49:55.257Z,100820.05
2019-04-26T01:52:22.873Z,100824.30
2019-04-26T01:54:50.659Z,100825.36
2019-04-26T01:57:19.555Z,100827.30
2019-04-26T01:59:49.986Z,100831.51
2019-04-26T02:02:25.641Z,100822.37
2019-04-26T02:04:57.474Z,100825.01
2019-04-26T02:07:39.896Z,100823.34
2019-04-26T02:10:07.532Z,100820.73
2019-04-26T02:12:34.625Z,100824.44
2019-04-26T02:15:04.361Z,100812.78
2019-04-26T02:17:33.634Z,100812.51
2019-04-26T02:20:00.463Z,100809.69
2019-04-26T02:22:32.626Z,100811.77
2019-04-26T02:24:59.433Z,100806.69
2019-04-26T02:27:28.311Z,100808.58
2019-04-26T02:29:55.616Z,100800.41
2019-04-26T02:32:23.092Z,100799.17
2019-04-26T02:34:49.990Z,100797.05
2019-04-26T02:37:17.378Z,100804.62
2019-04-26T02:39:44.237Z,100799.70
2019-04-26T02:42:19.868Z,100795.16
2019-04-26T02:44:50.341Z,100796.00
2019-04-26T02:47:28.930Z,100796.44
2019-04-26T02:49:58.828Z,100792.25
2019-04-26T02:52:48.113Z,100792.63
2019-04-26T02:55:38.841Z,100794.92
2019-04-26T02:58:02.535Z,100786.32
2019-04-26T03:00:30.149Z,100787.25
2019-04-26T03:03:01.178Z,100784.41
2019-04-26T03:05:32.295Z,100783.48
2019-04-26T03:08:01.731Z,100779.23
2019-04-26T03:10:32.164Z,100776.59
2019-04-26T03:13:01.201Z,100776.26
2019-04-26T03:15:38.904Z,100781.32
2019-04-26T03:18:27.888Z,100771.78
2019-04-26T03:20:59.051Z,100774.73
2019-04-26T03:23:58.216Z,100772.14
2019-04-26T03:26:26.843Z,100768.65
2019-04-26T03:29:05.363Z,100767.89
2019-04-26T03:31:54.471Z,100777.91
2019-04-26T03:34:27.236Z,100776.47
2019-04-26T03:37:28.776Z,100770.83
2019-04-26T03:40:20.399Z,100766.08
2019-04-26T03:43:01.183Z,100760.62
2019-04-26T03:45:36.412Z,100766.28
2019-04-26T03:48:43.003Z,100761.47
2019-04-26T03:51:17.591Z,100761.47
2019-04-26T03:53:47.643Z,100765.31
2019-04-26T03:56:22.528Z,100767.24
2019-04-26T03:58:57.788Z,100772.98
2019-04-26T04:01:27.483Z,100771.61
2019-04-26T04:03:59.309Z,100771.12
2019-04-26T04:06:29.657Z,100767.19
2019-04-26T04:08:59.716Z,100768.63
2019-04-26T04:11:30.871Z,100768.30
2019-04-26T04:14:06.589Z,100766.39
2019-04-26T04:16:42.875Z,100759.74
2019-04-26T04:19:12.331Z,100759.86
2019-04-26T04:21:45.097Z,100757.76
2019-04-26T04:24:14.293Z,100763.55
2019-04-26T04:27:09.391Z,100756.13
2019-04-26T04:29:50.544Z,100753.58
2019-04-26T04:32:17.404Z,100750.68
2019-04-26T04:34:47.750Z,100753.84
2019-04-26T04:37:17.277Z,100750.10
2019-04-26T04:40:08.180Z,100755.45
2019-04-26T04:43:06.360Z,100751.09
2019-04-26T04:46:15.022Z,100750.80
2019-04-26T04:49:12.007Z,100749.21
2019-04-26T04:51:44.187Z,100748.52
2019-04-26T04:54:14.924Z,100745.37
2019-04-26T04:56:55.601Z,100739.89
2019-04-26T04:59:26.558Z,100740.32
2019-04-26T05:02:15.575Z,100739.23
2019-04-26T05:05:04.645Z,100736.36
2019-04-26T05:08:05.397Z,100740.53
2019-04-26T05:10:27.941Z,100730.98
2019-04-26T05:13:15.980Z,100727.41
2019-04-26T05:15:59.207Z,100734.42
2019-04-26T05:18:54.803Z,100734.45
2019-04-26T05:21:38.640Z,100729.92
2019-04-26T05:24:13.897Z,100729.86
2019-04-26T05:26:55.616Z,100726.14
2019-04-26T05:29:36.237Z,100733.80
2019-04-26T05:32:08.642Z,100725.04
2019-04-26T05:34:43.905Z,100729.88
2019-04-26T05:37:38.942Z,100724.72
2019-04-26T05:40:20.864Z,100731.67
2019-04-26T05:43:05.725Z,100723.67
2019-04-26T05:45:56.042Z,100735.05
2019-04-26T05:48:58.319Z,100731.21
2019-04-26T05:52:02.150Z,100729.94
2019-04-26T05:54:54.030Z,100720.91
2019-04-26T05:57:51.596Z,100729.82
2019-04-26T06:00:29.165Z,100732.20
2019-04-26T06:03:02.110Z,100725.30
2019-04-26T06:05:52.371Z,100724.76
2019-04-26T06:09:13.575Z,100726.88
2019-04-26T06:11:48.822Z,100726.41
2019-04-26T06:14:41.207Z,100724.25
2019-04-26T06:17:29.695Z,100724.17
2019-04-26T06:20:06.879Z,100722.54
2019-04-26T06:22:38.672Z,100720.72
2019-04-26T06:25:22.801Z,100720.91
2019-04-26T06:27:57.015Z,100720.83
2019-04-26T06:30:30.880Z,100712.59
2019-04-26T06:33:06.226Z,100711.20
2019-04-26T06:35:36.938Z,100721.34
2019-04-26T06:38:43.719Z,100712.38
2019-04-26T06:41:24.253Z,100714.43
2019-04-26T06:43:55.453Z,100708.36
2019-04-26T06:46:33.608Z,100723.86
2019-04-26T06:49:08.014Z,100712.22
2019-04-26T06:51:39.200Z,100711.45
2019-04-26T06:54:18.500Z,100695.52
2019-04-26T06:57:10.609Z,100701.13
2019-04-26T06:59:44.234Z,100695.53
2019-04-26T07:02:18.114Z,100698.08
2019-04-26T07:04:55.100Z,100699.39
2019-04-26T07:07:35.417Z,100695.94
2019-04-26T07:10:09.698Z,100686.02
2019-04-26T07:12:47.117Z,100689.98
2019-04-26T07:15:30.716Z,100684.16
2019-04-26T07:18:23.395Z,100689.02
2019-04-26T07:20:57.291Z,100687.72
2019-04-26T07:23:31.935Z,100674.46
2019-04-26T07:26:17.095Z,100675.49
2019-04-26T07:28:57.284Z,100667.55
2019-04-26T07:31:37.733Z,100661.56
2019-04-26T07:34:14.073Z,100657.64
2019-04-26T07:36:58.689Z,100658.15
2019-04-26T07:39:44.360Z,100657.63
2019-04-26T07:42:53.351Z,100649.50
2019-04-26T07:45:47.840Z,100642.39
2019-04-26T07:48:27.845Z,100645.70
2019-04-26T07:51:20.236Z,100641.73
2019-04-26T07:54:05.123Z,100646.73
2019-04-26T07:56:59.075Z,100640.09
2019-04-26T07:59:57.492Z,100639.80
2019-04-26T08:02:34.119Z,100634.13
2019-04-26T08:05:09.513Z,100636.11
2019-04-26T08:07:39.741Z,100630.79
2019-04-26T08:10:09.860Z,100638.20
2019-04-26T08:12:38.708Z,100634.14
2019-04-26T08:15:11.338Z,100638.71
2019-04-26T08:17:47.607Z,100633.09
2019-04-26T08:20:19.592Z,100632.97
2019-04-26T08:22:48.332Z,100637.88
2019-04-26T08:25:17.594Z,100632.24
2019-04-26T08:27:45.644Z,100631.34
2019-04-26T08:30:17.435Z,100626.31
2019-04-26T08:32:46.823Z,100617.55
2019-04-26T08:35:20.629Z,100610.83
2019-04-26T08:37:52.579Z,100604.02
2019-04-26T08:40:28.273Z,100607.86
2019-04-26T08:43:10.952Z,100603.27
2019-04-26T08:46:01.886Z,100593.73
2019-04-26T08:48:22.404Z,100601.06
2019-04-26T08:50:51.402Z,100600.79
2019-04-26T08:53:18.936Z,100599.89
2019-04-26T08:55:47.147Z,100596.45
2019-04-26T08:58:15.954Z,100600.26
2019-04-26T09:00:52.372Z,100595.08
2019-04-26T09:03:41.024Z,100598.05
2019-04-26T09:06:23.597Z,100598.72
2019-04-26T09:08:53.185Z,100600.42
2019-04-26T09:11:25.937Z,100605.72
2019-04-26T09:13:51.966Z,100605.12
2019-04-26T09:16:20.164Z,100603.97
2019-04-26T09:18:52.693Z,100603.45
2019-04-26T09:21:19.316Z,100592.51
2019-04-26T09:24:04.786Z,100597.48
2019-04-26T09:26:42.476Z,100603.80
2019-04-26T09:29:30.159Z,100610.16
2019-04-26T09:31:57.193Z,100608.19
2019-04-26T09:34:31.986Z,100604.50
2019-04-26T09:36:58.876Z,100601.75
2019-04-26T09:39:26.373Z,100597.33
2019-04-26T09:41:55.112Z,100596.24
2019-04-26T09:44:32.604Z,100590.92
2019-04-26T09:47:04.024Z,100589.58
2019-04-26T09:49:41.220Z,100587.27
2019-04-26T09:52:10.729Z,100583.12
2019-04-26T09:54:37.533Z,100574.88
2019-04-26T09:57:04.612Z,100573.72
2019-04-26T09:59:31.420Z,100588.44
2019-04-26T10:02:00.359Z,100586.20
2019-04-26T10:04:27.737Z,100573.46
2019-04-26T10:06:55.040Z,100582.97
2019-04-26T10:09:22.819Z,100581.72
2019-04-26T10:11:51.539Z,100569.08
2019-04-26T10:14:26.198Z,100574.02
2019-04-26T10:16:54.973Z,100573.09
2019-04-26T10:19:23.814Z,100567.41
2019-04-26T10:28:15.918Z,100548.48
2019-04-26T10:30:43.993Z,100544.66
2019-04-26T10:33:10.708Z,100542.64
2019-04-26T10:35:37.753Z,100548.58
2019-04-26T10:38:04.725Z,100551.69
2019-04-26T10:40:35.757Z,100548.87
2019-04-26T10:43:00.596Z,100535.80
2019-04-26T10:45:29.088Z,100538.66
2019-04-26T10:47:55.867Z,100541.36
2019-04-26T10:50:23.245Z,100548.49
2019-04-26T10:52:56.126Z,100545.53
2019-04-26T10:55:34.165Z,100527.55
2019-04-26T10:58:13.550Z,100516.71
2019-04-26T11:00:48.447Z,100522.66
2019-04-26T11:03:14.201Z,100534.45
2019-04-26T11:05:40.780Z,100537.02
2019-04-26T11:08:08.139Z,100535.98
2019-04-26T11:10:47.717Z,100525.00
2019-04-26T11:13:04.818Z,100516.67
2019-04-26T11:15:32.724Z,100510.70
2019-04-26T11:18:01.936Z,100509.80
2019-04-26T11:20:28.671Z,100500.23
2019-04-26T11:22:55.712Z,100509.00
2019-04-26T11:25:24.730Z,100501.00
2019-04-26T11:27:51.412Z,100500.88
2019-04-26T11:30:20.783Z,100497.63
2019-04-26T11:32:46.831Z,100494.18
2019-04-26T11:35:14.155Z,100478.03
2019-04-26T11:37:41.292Z,100487.48
2019-04-26T11:40:10.198Z,100497.03
2019-04-26T11:42:38.032Z,100480.22
2019-04-26T11:45:10.658Z,100472.89
2019-04-26T11:47:37.189Z,100489.55
2019-04-26T11:50:04.849Z,100475.67
2019-04-26T11:52:32.145Z,100467.41
2019-04-26T11:55:00.579Z,100465.42
2019-04-26T11:57:27.334Z,100465.69
2019-04-26T11:59:54.179Z,100471.86
2019-04-26T12:02:21.405Z,100476.25
2019-04-26T12:05:05.219Z,100466.34
2019-04-26T12:07:36.880Z,100471.02
2019-04-26T12:10:09.237Z,100466.30
2019-04-26T12:12:34.765Z,100460.33
2019-04-26T12:15:03.855Z,100450.05
2019-04-26T12:17:35.169Z,100448.47
2019-04-26T12:20:00.442Z,100454.79
2019-04-26T12:22:28.581Z,100457.45
2019-04-26T12:24:55.571Z,100447.33
2019-04-26T12:27:22.538Z,100439.91
2019-04-26T12:29:49.877Z,100457.09
2019-04-26T12:32:17.275Z,100464.53
2019-04-26T12:34:44.198Z,100465.39
2019-04-26T12:37:13.054Z,100451.99
2019-04-26T12:39:39.976Z,100453.01
2019-04-26T12:42:08.254Z,100451.30
2019-04-26T12:44:41.044Z,100442.38
2019-04-26T12:47:12.092Z,100444.34
2019-04-26T12:49:39.115Z,100443.85
2019-04-26T12:52:06.355Z,100449.27
2019-04-26T12:54:33.376Z,100440.72
2019-04-26T12:57:01.569Z,100439.59
2019-04-26T12:59:43.361Z,100431.54
2019-04-26T13:02:05.700Z,100433.02
2019-04-26T13:04:36.045Z,100434.15
2019-04-26T13:07:02.283Z,100440.63
2019-04-26T13:09:32.511Z,100428.48
2019-04-26T13:12:19.658Z,100433.22
2019-04-26T13:14:57.018Z,100418.31
2019-04-26T13:17:25.566Z,100434.77
2019-04-26T13:19:53.813Z,100428.41
2019-04-26T13:22:20.819Z,100426.69
2019-04-26T13:24:47.866Z,100408.01
2019-04-26T13:27:15.056Z,100416.45
2019-04-26T13:29:43.218Z,100414.67
2019-04-26T13:32:10.050Z,100419.16
2019-04-26T13:34:37.206Z,100408.32
2019-04-26T13:37:05.264Z,100405.31
2019-04-26T13:39:33.230Z,100398.12
2019-04-26T13:42:04.350Z,100405.08
2019-04-26T13:44:47.945Z,100403.71
2019-04-26T13:47:25.521Z,100396.51
2019-04-26T13:50:09.759Z,100394.67
2019-04-26T13:52:36.611Z,100383.14
2019-04-26T13:55:03.753Z,100382.13
2019-04-26T13:57:31.133Z,100378.27
2019-04-26T13:59:57.925Z,100368.16
2019-04-26T14:02:25.251Z,100368.26
2019-04-26T14:04:52.396Z,100388.45
2019-04-26T14:07:20.109Z,100380.81
2019-04-26T14:09:48.108Z,100376.65
2019-04-26T14:12:18.756Z,100378.67
2019-04-26T14:14:43.923Z,100371.38
2019-04-26T14:17:11.642Z,100369.21
2019-04-26T14:19:38.495Z,100373.61
2019-04-26T14:22:07.061Z,100372.52
2019-04-26T14:24:36.234Z,100382.38
2019-04-26T14:27:05.329Z,100375.48
2019-04-26T14:29:33.878Z,100373.53
2019-04-26T14:32:01.434Z,100366.47
2019-04-26T14:34:28.912Z,100366.03
2019-04-26T14:37:05.836Z,100364.12
2019-04-26T14:39:35.252Z,100366.58
2019-04-26T14:41:57.045Z,100366.72
2019-04-26T14:44:22.636Z,100367.61
2019-04-26T14:46:53.392Z,100365.98
2019-04-26T14:49:19.315Z,100362.59
2019-04-26T14:51:51.281Z,100355.19
2019-04-26T14:54:16.480Z,100350.09
2019-04-26T14:56:52.079Z,100355.00
2019-04-26T14:59:12.475Z,100354.19
2019-04-26T15:01:42.404Z,100348.95
2019-04-26T15:04:28.387Z,100353.47
2019-04-26T15:06:59.509Z,100352.05
2019-04-26T15:09:33.082Z,100357.66
2019-04-26T15:11:59.650Z,100347.95
2019-04-26T15:14:23.822Z,100354.48
2019-04-26T15:16:51.241Z,100348.28
2019-04-26T15:19:18.378Z,100336.73
2019-04-26T15:21:45.104Z,100340.95
2019-04-26T15:24:12.795Z,100342.80
2019-04-26T15:26:40.256Z,100340.47
2019-04-26T15:29:06.891Z,100340.66
2019-04-26T15:31:34.742Z,100340.33
2019-04-26T15:34:03.237Z,100335.95
2019-04-26T15:36:30.275Z,100332.58
2019-04-26T15:38:57.697Z,100341.02
2019-04-26T15:41:47.002Z,100330.41
2019-04-26T15:44:24.844Z,100334.40
2019-04-26T15:47:05.957Z,100332.39
2019-04-26T15:49:37.385Z,100321.27
2019-04-26T15:52:04.329Z,100325.28
2019-04-26T15:54:32.370Z,100335.78
2019-04-26T15:56:59.429Z,100329.11
2019-04-26T15:59:26.558Z,100332.56
2019-04-26T16:01:56.157Z,100330.11
2019-04-26T16:04:23.807Z,100332.08
2019-04-26T16:06:52.185Z,100327.52
2019-04-26T16:09:20.792Z,100322.50
2019-04-26T16:11:50.479Z,100315.61
2019-04-26T16:14:16.724Z,100323.22
2019-04-26T16:16:43.778Z,100318.56
2019-04-26T16:19:10.553Z,100322.35
2019-04-26T16:21:37.596Z,100313.39
2019-04-26T16:24:04.813Z,100317.08
2019-04-26T16:26:32.961Z,100308.98
2019-04-26T16:29:04.708Z,100313.17
2019-04-26T16:31:42.181Z,100313.03
2019-04-26T16:34:19.019Z,100308.62
2019-04-26T16:36:45.931Z,100313.53
2019-04-26T16:39:13.189Z,100311.30
2019-04-26T16:41:42.004Z,100311.94
2019-04-26T16:44:08.778Z,100307.63
2019-04-26T16:46:35.745Z,100307.50
2019-04-26T16:49:05.655Z,100304.45
2019-04-26T16:51:33.309Z,100312.19
2019-04-26T16:54:07.343Z,100307.86
2019-04-26T16:56:28.849Z,100309.81
2019-04-26T16:58:55.954Z,100305.67
2019-04-26T17:01:23.478Z,100311.01
2019-04-26T17:03:50.734Z,100307.57
2019-04-26T17:06:18.220Z,100308.05
2019-04-26T17:08:49.341Z,100311.84
2019-04-26T17:11:14.050Z,100316.70
2019-04-26T17:13:49.253Z,100314.46
2019-04-26T17:16:09.839Z,100319.18
2019-04-26T17:18:36.945Z,100309.33
2019-04-26T17:21:04.419Z,100311.56
2019-04-26T17:23:45.375Z,100307.51
2019-04-26T17:26:20.230Z,100310.09
2019-04-26T17:28:46.755Z,100315.45
2019-04-26T17:31:14.105Z,100314.11
2019-04-26T17:33:41.299Z,100310.84
2019-04-26T17:36:11.473Z,100313.72
2019-04-26T17:38:39.232Z,100307.03
2019-04-26T17:41:06.455Z,100314.34
2019-04-26T17:43:34.594Z,100311.68
2019-04-26T17:46:01.653Z,100309.41
2019-04-26T17:48:30.419Z,100304.64
2019-04-26T17:50:58.088Z,100313.33
2019-04-26T17:53:28.817Z,100305.94
2019-04-26T17:55:55.006Z,100303.89
2019-04-26T17:58:27.577Z,100311.10
2019-04-26T18:00:51.517Z,100308.30
2019-04-26T18:03:18.551Z,100313.92
2019-04-26T18:05:56.541Z,100307.78
2019-04-26T18:08:33.215Z,100302.17
2019-04-26T18:10:43.385Z,100310.60
2019-04-26T18:13:16.073Z,100308.89
2019-04-26T18:15:39.978Z,100311.58
2019-04-26T18:18:28.030Z,100310.27
2019-04-26T18:20:59.634Z,100309.95
2019-04-26T18:23:26.864Z,100310.22
2019-04-26T18:25:54.010Z,100311.45
2019-04-26T18:28:22.681Z,100313.05
2019-04-26T18:30:50.205Z,100307.92
2019-04-26T18:33:21.856Z,100311.94
2019-04-26T18:35:49.263Z,100316.50
2019-04-26T18:38:15.087Z,100316.05
2019-04-26T18:41:00.019Z,100311.36
2019-04-26T18:43:12.511Z,100317.02
2019-04-26T18:45:39.977Z,100314.28
2019-04-26T18:48:07.111Z,100320.11
2019-04-26T18:50:36.411Z,100318.30
2019-04-26T18:53:13.886Z,100319.67
2019-04-26T18:55:43.433Z,100327.95
2019-04-26T18:58:13.429Z,100333.91
2019-04-26T19:00:43.598Z,100328.26
2019-04-26T19:03:13.302Z,100327.94
2019-04-26T19:05:39.161Z,100332.55
2019-04-26T19:08:07.604Z,100340.52
2019-04-26T19:10:35.325Z,100339.19
2019-04-26T19:13:07.529Z,100340.73
2019-04-26T19:15:46.544Z,100340.61
2019-04-26T19:18:18.872Z,100343.88
2019-04-26T19:20:47.554Z,100343.17
2019-04-26T19:23:14.487Z,100344.94
2019-04-26T19:25:41.560Z,100346.02
2019-04-26T19:28:08.499Z,100342.75
2019-04-26T19:30:35.607Z,100349.11
2019-04-26T19:33:03.277Z,100341.16
2019-04-26T19:35:30.443Z,100338.07
2019-04-26T19:37:57.729Z,100342.09
2019-04-26T19:40:27.308Z,100338.08
2019-04-26T19:42:57.377Z,100328.29
2019-04-26T19:45:45.915Z,100335.77
2019-04-26T19:48:27.028Z,100326.39
2019-04-26T19:50:55.547Z,100323.97
2019-04-26T19:53:30.116Z,100325.52
2019-04-26T19:56:10.992Z,100318.88
2019-04-26T19:58:39.850Z,100320.02
2019-04-26T20:01:06.977Z,100317.34
2019-04-26T20:03:34.006Z,100317.61
2019-04-26T20:06:00.993Z,100318.84
2019-04-26T20:08:29.526Z,100312.21
2019-04-26T20:10:56.326Z,100314.32
2019-04-26T20:13:23.408Z,100308.08
2019-04-26T20:15:51.426Z,100309.78
2019-04-26T20:18:18.698Z,100314.13
2019-04-26T20:20:45.343Z,100313.15
2019-04-26T20:23:12.437Z,100310.77
2019-04-26T20:25:39.274Z,100311.81
2019-04-26T20:28:06.291Z,100309.92
2019-04-26T20:30:34.968Z,100312.47
2019-04-26T20:33:01.985Z,100305.33
2019-04-26T20:35:29.046Z,100301.53
2019-04-26T20:37:56.195Z,100307.70
2019-04-26T20:40:25.612Z,100301.36
2019-04-26T20:42:57.195Z,100298.21
2019-04-26T20:45:21.790Z,100292.64
2019-04-26T20:47:54.484Z,100299.34
2019-04-26T20:50:17.540Z,100294.91
2019-04-26T20:52:45.458Z,100303.14
2019-04-26T20:55:13.759Z,100296.58
2019-04-26T20:57:42.761Z,100294.24
2019-04-26T21:00:12.633Z,100289.76
2019-04-26T21:02:39.669Z,100291.47
2019-04-26T21:05:10.286Z,100284.16
2019-04-26T21:07:35.648Z,100297.63
2019-04-26T21:10:03.684Z,100297.69
2019-04-26T21:12:32.062Z,100291.44
2019-04-26T21:14:59.165Z,100295.78
2019-04-26T21:17:27.899Z,100297.19
2019-04-26T21:19:58.418Z,100295.85
2019-04-26T21:22:28.389Z,100288.75
2019-04-26T21:25:08.497Z,100289.31
2019-04-26T21:27:43.075Z,100288.98
2019-04-26T21:30:24.713Z,100296.92
2019-04-26T21:33:03.021Z,100292.69
2019-04-26T21:35:32.014Z,100292.02
2019-04-26T21:38:01.034Z,100289.55
2019-04-26T21:40:31.264Z,100283.44
2019-04-26T21:42:59.459Z,100283.84
2019-04-26T21:45:30.696Z,100279.75
2019-04-26T21:47:55.756Z,100278.58
2019-04-26T21:50:23.217Z,100274.26
2019-04-26T21:52:50.056Z,100278.95
2019-04-26T21:55:17.209Z,100275.13
2019-04-26T21:57:44.284Z,100276.02
2019-04-26T22:00:13.841Z,100268.47
2019-04-26T22:02:43.064Z,100277.78
2019-04-26T22:05:11.903Z,100268.75
2019-04-26T22:07:39.424Z,100264.00
2019-04-26T22:10:15.377Z,100269.50
2019-04-26T22:12:43.221Z,100266.78
2019-04-26T22:15:15.669Z,100265.59
2019-04-26T22:17:44.406Z,100267.42
2019-04-26T22:20:16.210Z,100265.45
2019-04-26T22:22:59.081Z,100275.13
2019-04-26T22:25:28.104Z,100267.67
2019-04-26T22:28:00.306Z,100266.31
2019-04-26T22:30:28.392Z,100265.28
2019-04-26T22:32:58.048Z,100259.56
2019-04-26T22:35:22.923Z,100262.47
2019-04-26T22:37:50.283Z,100261.14
2019-04-26T22:40:19.741Z,100253.80
2019-04-26T22:42:47.756Z,100256.34
2019-04-26T22:45:23.542Z,100255.25
2019-04-26T22:47:53.581Z,100257.51
2019-04-26T22:50:22.292Z,100252.48
2019-04-26T22:52:51.479Z,100248.23
2019-04-26T22:55:24.030Z,100252.56
2019-04-26T22:57:49.499Z,100251.26
2019-04-26T23:00:19.758Z,100256.10
2019-04-26T23:02:46.278Z,100249.20
2019-04-26T23:05:13.885Z,100252.09
2019-04-26T23:07:41.229Z,100249.88
2019-04-26T23:10:10.066Z,100246.97
2019-04-26T23:12:57.965Z,100246.80
2019-04-26T23:15:43.302Z,100244.73
2019-04-26T23:18:15.913Z,100245.22
2019-04-26T23:21:03.599Z,100236.02
2019-04-26T23:23:30.655Z,100232.18
2019-04-26T23:25:57.589Z,100223.98
2019-04-26T23:28:36.855Z,100223.94
2019-04-26T23:31:07.819Z,100217.52
2019-04-26T23:33:33.822Z,100224.23
2019-04-26T23:36:00.836Z,100210.64
2019-04-26T23:38:28.090Z,100217.09
2019-04-26T23:40:57.282Z,100218.52
2019-04-26T23:43:25.622Z,100211.06
2019-04-26T23:45:53.082Z,100216.39
2019-04-26T23:48:20.172Z,100206.10
2019-04-26T23:50:47.627Z,100212.86
2019-04-26T23:53:14.503Z,100203.27
2019-04-26T23:55:45.234Z,100200.69
2019-04-26T23:58:13.850Z,100196.23
